Time;durP1;ratioP1;P1;durP2;ratioP2;P2;SDS_P1;SDS_P2;PMS_P1;PMS_P2;Temp;Humidity;BMP_temperature;BMP_pressure;BME280_temperature;BME280_humidity;BME280_pressure;Samples;Min_cycle;Max_cycle;Signal;HPM_P1;HPM_P2
2022/04/02 00:00:37;;;;;;;13.23;11.32;;;;;;;1.56;80.48;98804.34;1088314;54;20669;-78
2022/04/02 00:01:42;;;;;;;12.15;10.77;;;;;;;1.59;80.61;98812.03;1091275;39;20244;-82
2022/04/02 00:02:47;;;;;;;14.15;10.85;;;;;;;1.56;80.54;98820.97;1088168;54;20030;-81
2022/04/02 00:03:49;;;;;;;14.35;10.82;;;;;;;1.59;80.54;98816.44;1088644;46;20034;-81
2022/04/02 00:04:53;;;;;;;12.80;10.10;;;;;;;1.65;80.53;98811.53;1088362;54;20035;-80
2022/04/02 00:08:24;;;;;;;12.00;10.68;;;;;;;1.63;80.16;98810.00;1092024;31;20883;-78
2022/04/02 00:09:26;;;;;;;11.80;10.25;;;;;;;1.66;80.08;98813.22;1087732;54;20015;-78
2022/04/02 00:10:30;;;;;;;12.48;10.98;;;;;;;1.61;80.22;98814.53;1088343;54;20034;-78
2022/04/02 00:11:32;;;;;;;13.23;11.15;;;;;;;1.61;79.55;98825.06;1088335;54;20062;-78
2022/04/02 00:12:36;;;;;;;14.23;10.68;;;;;;;1.55;79.44;98815.84;1088283;54;20037;-77
2022/04/02 00:13:38;;;;;;;12.15;10.35;;;;;;;1.60;79.38;98812.84;1088327;54;20042;-78
2022/04/02 00:14:42;;;;;;;12.60;10.38;;;;;;;1.62;79.06;98811.78;1088647;46;20077;-77
2022/04/02 00:15:44;;;;;;;14.95;11.23;;;;;;;1.54;79.23;98824.69;1088310;54;20037;-77
2022/04/02 00:16:51;;;;;;;12.60;10.68;;;;;;;1.43;79.48;98815.00;1088306;54;20037;-79
2022/04/02 00:17:52;;;;;;;13.38;10.35;;;;;;;1.45;79.73;98809.59;1092317;39;20716;-78
2022/04/02 00:18:56;;;;;;;12.23;9.85;;;;;;;1.51;79.82;98817.06;1091312;46;20034;-79
2022/04/02 00:19:58;;;;;;;11.93;9.95;;;;;;;1.48;80.01;98817.28;1088306;54;20034;-77
2022/04/02 00:21:02;;;;;;;12.45;10.60;;;;;;;1.48;79.91;98814.63;1088369;54;20050;-78
2022/04/02 00:22:06;;;;;;;15.48;10.98;;;;;;;1.47;79.86;98818.22;1088334;54;20056;-78
2022/04/02 00:24:27;;;;;;;13.80;10.70;;;;;;;1.40;79.79;98816.06;1088262;54;20054;-78
2022/04/02 00:25:29;;;;;;;13.07;10.63;;;;;;;1.43;80.01;98817.63;1088338;54;20065;-78
2022/04/02 00:26:34;;;;;;;11.80;9.45;;;;;;;1.45;79.55;98809.59;1090798;39;20759;-77
2022/04/02 00:27:35;;;;;;;14.00;9.63;;;;;;;1.43;79.50;98812.34;1088263;54;20092;-77
2022/04/02 00:28:41;;;;;;;14.55;10.27;;;;;;;1.44;79.57;98813.19;1088322;54;20069;-77
2022/04/02 00:29:45;;;;;;;12.30;9.55;;;;;;;1.43;79.56;98816.75;1088383;47;20023;-76
2022/04/02 00:30:47;;;;;;;12.63;9.52;;;;;;;1.40;79.78;98813.44;1088340;54;20041;-78
2022/04/02 00:31:53;;;;;;;13.57;9.50;;;;;;;1.43;79.78;98816.75;1089187;46;20722;-78
2022/04/02 00:32:55;;;;;;;10.93;9.23;;;;;;;1.51;79.81;98806.50;1090807;39;20621;-79
2022/04/02 00:33:59;;;;;;;12.73;9.77;;;;;;;1.45;79.38;98810.44;1088318;54;20037;-77
2022/04/02 00:35:01;;;;;;;11.63;9.40;;;;;;;1.40;79.47;98810.81;1088853;46;20026;-77
2022/04/02 00:36:05;;;;;;;14.00;9.20;;;;;;;1.38;79.00;98810.06;1088269;54;20078;-78
2022/04/02 00:37:07;;;;;;;14.98;9.05;;;;;;;1.37;79.47;98818.94;1089226;39;20668;-78
2022/04/02 00:38:12;;;;;;;13.02;8.77;;;;;;;1.42;79.71;98812.47;1088343;54;20018;-77
2022/04/02 00:39:16;;;;;;;15.13;9.88;;;;;;;1.42;79.23;98818.56;1088310;54;20041;-78
2022/04/02 00:40:18;;;;;;;11.25;9.02;;;;;;;1.40;79.06;98805.53;1088217;54;20056;-77
2022/04/02 00:41:22;;;;;;;12.07;8.77;;;;;;;1.46;79.37;98808.63;1088319;54;20038;-75
2022/04/02 00:42:23;;;;;;;12.32;8.90;;;;;;;1.44;79.23;98815.81;1088260;54;20037;-79
2022/04/02 00:43:29;;;;;;;13.13;9.18;;;;;;;1.49;79.34;98813.69;1088329;54;20018;-77
2022/04/02 00:44:30;;;;;;;13.45;9.07;;;;;;;1.49;79.15;98816.31;1088347;54;20034;-77
2022/04/02 00:45:34;;;;;;;11.30;9.05;;;;;;;1.47;78.98;98813.78;1088752;39;20618;-76
2022/04/02 00:46:40;;;;;;;13.38;8.90;;;;;;;1.46;79.10;98813.91;1088293;54;20034;-77
2022/04/02 00:47:44;;;;;;;11.70;9.48;;;;;;;1.46;79.08;98816.53;1088288;54;20025;-77
2022/04/02 00:48:50;;;;;;;12.63;8.65;;;;;;;1.45;78.91;98809.59;1088366;54;20025;-77
2022/04/02 00:49:53;;;;;;;12.05;7.85;;;;;;;1.47;79.15;98815.59;1088264;54;20062;-77
2022/04/02 00:51:00;;;;;;;9.98;7.78;;;;;;;1.54;78.81;98819.44;1088226;54;20030;-77
2022/04/02 00:52:04;;;;;;;12.13;8.65;;;;;;;1.48;78.37;98820.72;1088354;54;20022;-76
2022/04/02 00:53:07;;;;;;;11.68;8.13;;;;;;;1.45;78.65;98815.72;1088326;54;20019;-78
2022/04/02 00:54:12;;;;;;;14.68;9.25;;;;;;;1.45;78.45;98814.88;1088331;54;20057;-77
2022/04/02 00:55:13;;;;;;;12.75;8.63;;;;;;;1.47;78.37;98812.97;1088963;46;20018;-76
2022/04/02 00:56:18;;;;;;;12.93;8.90;;;;;;;1.53;77.99;98815.97;1088287;54;20038;-78
2022/04/02 00:57:20;;;;;;;11.10;8.60;;;;;;;1.54;77.88;98812.38;1088342;54;20018;-77
2022/04/02 00:58:25;;;;;;;12.20;8.07;;;;;;;1.55;77.93;98821.13;1088285;54;20019;-77
2022/04/02 00:59:27;;;;;;;11.15;8.05;;;;;;;1.52;77.95;98813.44;1088353;54;20046;-78
2022/04/02 01:00:34;;;;;;;15.68;8.25;;;;;;;1.48;77.81;98819.91;1088389;47;20085;-79
2022/04/02 01:01:38;;;;;;;13.20;8.45;;;;;;;1.52;78.09;98821.34;1090424;46;20046;-78
2022/04/02 01:02:40;;;;;;;9.85;7.72;;;;;;;1.57;78.13;98824.47;1088517;54;20022;-77
2022/04/02 01:03:46;;;;;;;9.70;8.13;;;;;;;1.62;78.32;98821.50;1091060;46;20034;-76
2022/04/02 01:04:48;;;;;;;9.80;7.65;;;;;;;1.62;78.23;98814.41;1088491;54;20022;-77
2022/04/02 01:05:53;;;;;;;10.45;6.72;;;;;;;1.70;78.12;98819.91;1088443;54;20015;-76
2022/04/02 01:06:59;;;;;;;10.88;8.60;;;;;;;1.66;77.97;98815.88;1091996;46;20045;-77
2022/04/02 01:08:01;;;;;;;12.05;8.15;;;;;;;1.66;78.43;98823.78;1088423;54;20018;-77
2022/04/02 01:09:05;;;;;;;10.73;8.23;;;;;;;1.62;78.07;98824.94;1088478;54;20030;-77
2022/04/02 01:10:07;;;;;;;11.68;8.40;;;;;;;1.56;77.74;98826.25;1087984;54;20031;-78
2022/04/02 01:11:11;;;;;;;12.05;8.70;;;;;;;1.53;77.76;98823.00;1088280;54;20030;-77
2022/04/02 01:12:13;;;;;;;9.85;8.10;;;;;;;1.55;78.14;98821.13;1088333;54;20034;-75
2022/04/02 01:13:17;;;;;;;13.52;8.07;;;;;;;1.59;78.24;98833.09;1088224;54;20074;-77
2022/04/02 01:14:21;;;;;;;11.77;8.10;;;;;;;1.56;78.10;98826.25;1088310;47;20332;-78
2022/04/02 01:15:23;;;;;;;12.20;8.15;;;;;;;1.49;78.09;98832.13;1088358;54;20038;-78
2022/04/02 01:16:34;;;;;;;12.50;8.13;;;;;;;1.45;78.06;98820.13;1088380;54;20064;-77
2022/04/02 01:17:40;;;;;;;10.25;7.90;;;;;;;1.49;78.26;98830.31;1088445;54;20061;-78
2022/04/02 01:18:46;;;;;;;12.25;8.35;;;;;;;1.51;78.03;98819.69;1088476;54;20030;-76
2022/04/02 01:19:48;;;;;;;10.95;7.53;;;;;;;1.53;77.90;98825.66;1090414;46;20022;-76
2022/04/02 01:20:53;;;;;;;13.18;8.38;;;;;;;1.47;77.93;98828.75;1088508;54;20054;-78
2022/04/02 01:21:57;;;;;;;10.77;7.78;;;;;;;1.39;78.09;98831.97;1088975;46;20023;-77
2022/04/02 01:23:02;;;;;;;12.45;8.35;;;;;;;1.42;78.11;98825.66;1105968;39;20231;-77
2022/04/02 01:24:05;;;;;;;12.30;7.47;;;;;;;1.44;77.98;98836.88;1088593;54;20019;-77
2022/04/02 01:25:14;;;;;;;12.35;7.93;;;;;;;1.44;77.98;98839.53;1088451;54;20019;-78
2022/04/02 01:26:20;;;;;;;10.77;7.60;;;;;;;1.44;78.09;98828.97;1088451;54;20041;-78
2022/04/02 01:27:22;;;;;;;11.82;8.05;;;;;;;1.45;77.77;98833.31;1088261;54;20045;-76
2022/04/02 01:28:33;;;;;;;9.88;6.75;;;;;;;1.42;78.18;98826.47;1088256;54;20037;-76
2022/04/02 01:29:35;;;;;;;13.32;7.45;;;;;;;1.52;77.46;98831.88;1088273;54;20075;-77
2022/04/02 01:30:39;;;;;;;12.20;8.95;;;;;;;1.50;77.55;98824.09;1088166;54;20033;-77
2022/04/02 01:31:43;;;;;;;11.13;7.28;;;;;;;1.48;77.39;98831.25;1088265;54;20026;-76
2022/04/02 01:32:47;;;;;;;9.98;7.85;;;;;;;1.41;77.62;98827.44;1088200;54;20110;-77
2022/04/02 01:33:52;;;;;;;11.57;8.02;;;;;;;1.42;77.63;98836.19;1088203;54;20034;-77
2022/04/02 01:34:53;;;;;;;10.10;7.22;;;;;;;1.45;78.03;98839.41;1088213;54;20031;-77
2022/04/02 01:36:02;;;;;;;10.02;7.10;;;;;;;1.53;77.93;98844.94;1088213;54;20713;-76
2022/04/02 01:37:06;;;;;;;11.25;6.82;;;;;;;1.55;77.94;98844.81;1088186;54;20030;-77
2022/04/02 01:38:10;;;;;;;12.45;7.93;;;;;;;1.56;77.98;98838.59;1088209;54;20030;-78
2022/04/02 01:39:11;;;;;;;10.10;7.13;;;;;;;1.59;77.64;98848.91;1088240;54;20019;-77
2022/04/02 01:40:23;;;;;;;10.05;7.47;;;;;;;1.59;77.87;98845.41;1088438;54;20037;-78
2022/04/02 01:41:24;;;;;;;11.25;7.40;;;;;;;1.49;77.80;98837.41;1088496;54;20068;-77
2022/04/02 01:42:43;;;;;;;12.05;8.52;;;;;;;1.42;77.84;98847.53;1092115;46;20062;-76
2022/04/02 01:43:49;;;;;;;10.68;8.02;;;;;;;1.40;78.06;98850.31;1088455;54;20038;-77
2022/04/02 01:44:51;;;;;;;11.32;7.25;;;;;;;1.37;78.24;98845.25;1090198;46;20026;-77
2022/04/02 01:45:57;;;;;;;11.35;7.65;;;;;;;1.38;78.03;98839.03;1089821;46;20037;-77
2022/04/02 01:46:58;;;;;;;12.50;7.95;;;;;;;1.35;77.80;98839.25;1088811;39;20850;-77
2022/04/02 01:48:04;;;;;;;12.40;6.75;;;;;;;1.30;78.12;98849.31;1089640;46;20030;-78
2022/04/02 01:49:06;;;;;;;10.02;7.85;;;;;;;1.34;78.20;98842.84;1088239;54;20034;-77
2022/04/02 01:50:11;;;;;;;9.10;6.97;;;;;;;1.44;78.03;98850.06;1088223;54;20019;-77
2022/04/02 01:51:13;;;;;;;12.05;7.15;;;;;;;1.45;77.99;98847.31;1088193;54;20074;-78
2022/04/02 01:52:22;;;;;;;9.90;7.50;;;;;;;1.44;78.24;98845.66;1088683;46;20083;-78
2022/04/02 01:53:25;;;;;;;11.65;7.60;;;;;;;1.40;78.02;98847.66;1088085;54;20053;-77
2022/04/02 01:54:29;;;;;;;10.27;7.45;;;;;;;1.34;78.27;98850.75;1088207;54;20035;-78
2022/04/02 01:55:30;;;;;;;10.63;7.68;;;;;;;1.36;78.20;98845.38;1088564;46;20030;-77
2022/04/02 01:56:36;;;;;;;9.60;7.55;;;;;;;1.36;78.47;98858.56;1088128;54;20037;-77
2022/04/02 01:57:37;;;;;;;12.05;8.30;;;;;;;1.40;78.64;98855.56;1091971;39;20735;-79
2022/04/02 01:58:42;;;;;;;10.73;7.97;;;;;;;1.39;78.54;98859.16;1088162;54;20035;-79
2022/04/02 01:59:44;;;;;;;11.85;8.20;;;;;;;1.38;78.63;98861.88;1088166;54;20046;-76
2022/04/02 02:00:48;;;;;;;12.38;8.25;;;;;;;1.37;78.77;98852.34;1088120;54;20034;-77
2022/04/02 02:01:50;;;;;;;9.15;7.10;;;;;;;1.36;78.75;98854.13;1088196;54;20053;-77
2022/04/02 02:02:54;;;;;;;8.35;6.80;;;;;;;1.43;78.73;98853.63;1088125;54;20042;-77
2022/04/02 02:03:55;;;;;;;13.27;7.35;;;;;;;1.37;78.79;98854.97;1088178;54;20031;-77
2022/04/02 02:05:00;;;;;;;9.98;7.85;;;;;;;1.44;78.94;98860.59;1088534;47;20026;-77
2022/04/02 02:06:02;;;;;;;10.45;7.30;;;;;;;1.48;78.88;98856.78;1088141;54;20038;-77
2022/04/02 02:07:07;;;;;;;11.65;8.10;;;;;;;1.47;78.98;98861.19;1088515;46;20019;-77
2022/04/02 02:08:11;;;;;;;9.52;7.75;;;;;;;1.46;79.32;98859.53;1088166;54;20046;-78
2022/04/02 02:09:15;;;;;;;12.98;7.32;;;;;;;1.51;79.39;98861.84;1088169;54;20772;-76
2022/04/02 02:10:18;;;;;;;10.45;7.60;;;;;;;1.49;79.10;98863.72;1088020;54;20038;-78
2022/04/02 02:11:22;;;;;;;9.98;7.88;;;;;;;1.42;79.33;98870.44;1088094;54;20022;-77
2022/04/02 02:12:24;;;;;;;12.52;8.63;;;;;;;1.35;79.18;98862.13;1088164;54;20061;-77
2022/04/02 02:13:28;;;;;;;13.50;8.23;;;;;;;1.37;79.29;98871.59;1088100;54;20119;-76
2022/04/02 02:14:30;;;;;;;10.07;8.18;;;;;;;1.34;79.75;98876.25;1088101;54;20022;-76
2022/04/02 02:15:34;;;;;;;11.00;8.68;;;;;;;1.30;79.85;98870.38;1088151;54;20057;-77
2022/04/02 02:16:36;;;;;;;11.38;8.10;;;;;;;1.38;79.70;98870.66;1090050;39;20602;-78
2022/04/02 02:17:40;;;;;;;9.50;7.68;;;;;;;1.43;79.64;98870.31;1088037;54;20018;-78
2022/04/02 02:18:42;;;;;;;10.45;7.85;;;;;;;1.48;79.51;98868.16;1088149;54;20065;-78
2022/04/02 02:19:46;;;;;;;12.93;9.45;;;;;;;1.42;79.39;98873.88;1088180;54;20014;-77
2022/04/02 02:20:49;;;;;;;10.80;8.27;;;;;;;1.30;79.56;98875.66;1088096;54;20026;-77
2022/04/02 02:21:53;;;;;;;12.02;8.77;;;;;;;1.27;79.73;98878.50;1088129;54;20037;-76
2022/04/02 02:22:55;;;;;;;12.10;9.00;;;;;;;1.27;79.70;98869.78;1088105;54;20065;-77
2022/04/02 02:24:01;;;;;;;11.95;8.43;;;;;;;1.30;79.98;98878.28;1088159;54;20042;-77
2022/04/02 02:25:04;;;;;;;15.82;9.13;;;;;;;1.26;79.37;98874.19;1088130;54;20038;-77
2022/04/02 02:26:08;;;;;;;13.85;8.93;;;;;;;1.22;79.81;98881.47;1088145;54;20034;-78
2022/04/02 02:27:09;;;;;;;10.52;8.95;;;;;;;1.17;79.56;98882.75;1088118;54;20022;-77
2022/04/02 02:28:15;;;;;;;12.80;8.85;;;;;;;1.18;79.46;98881.81;1088125;54;20030;-77
2022/04/02 02:29:17;;;;;;;12.35;9.57;;;;;;;1.18;79.63;98882.63;1088500;47;20014;-77
2022/04/02 02:30:21;;;;;;;12.23;8.98;;;;;;;1.15;79.74;98876.75;1088528;47;20018;-77
2022/04/02 02:31:22;;;;;;;11.25;9.15;;;;;;;1.15;79.77;98882.88;1088084;54;20019;-77
2022/04/02 02:32:28;;;;;;;14.05;9.20;;;;;;;1.19;79.65;98879.06;1088188;54;20015;-78
2022/04/02 02:36:03;;;;;;;12.57;9.60;;;;;;;1.13;79.75;98884.78;1088572;39;20809;-78
2022/04/02 02:37:09;;;;;;;13.23;9.60;;;;;;;1.10;79.58;98879.75;1088093;54;20078;-78
2022/04/02 02:38:12;;;;;;;13.00;9.35;;;;;;;1.12;79.65;98882.28;1088140;54;20043;-77
2022/04/02 02:39:18;;;;;;;11.50;8.43;;;;;;;1.14;79.85;98888.25;1088145;54;20035;-77
2022/04/02 02:40:20;;;;;;;13.23;9.30;;;;;;;1.18;79.84;98887.09;1088187;54;20042;-78
2022/04/02 02:41:24;;;;;;;11.68;9.65;;;;;;;1.11;79.83;98888.50;1088153;54;20150;-77
2022/04/02 02:42:27;;;;;;;11.98;8.90;;;;;;;1.06;79.75;98881.75;1088148;54;20035;-77
2022/04/02 02:43:31;;;;;;;14.30;9.85;;;;;;;1.07;79.86;98886.06;1089499;47;20733;-79
2022/04/02 02:44:32;;;;;;;14.07;10.07;;;;;;;1.07;79.51;98883.44;1088174;54;20018;-79
2022/04/02 02:45:37;;;;;;;13.18;8.80;;;;;;;1.06;79.67;98886.19;1090411;47;20722;-78
2022/04/02 02:46:39;;;;;;;13.05;9.20;;;;;;;1.04;79.78;98886.28;1088134;54;20018;-77
2022/04/02 02:47:43;;;;;;;11.10;9.13;;;;;;;1.02;79.79;98888.22;1088134;54;20095;-77
2022/04/02 02:48:45;;;;;;;10.20;8.75;;;;;;;0.99;79.79;98888.44;1090909;39;20613;-78
2022/04/02 02:49:49;;;;;;;12.07;9.73;;;;;;;1.06;79.73;98894.09;1088159;54;20030;-78
2022/04/02 02:50:52;;;;;;;11.00;8.98;;;;;;;1.08;79.58;98887.75;1088135;54;20725;-77
2022/04/02 02:51:56;;;;;;;12.30;9.85;;;;;;;1.07;79.51;98890.50;1088194;54;20948;-78
2022/04/02 02:52:58;;;;;;;12.90;8.73;;;;;;;1.07;79.23;98893.97;1088101;54;20038;-78
2022/04/02 02:54:02;;;;;;;14.15;9.30;;;;;;;1.08;79.18;98897.47;1088226;47;20030;-78
2022/04/02 02:55:08;;;;;;;11.63;8.65;;;;;;;1.15;79.29;98892.56;1089612;39;21033;-78
2022/04/02 02:56:13;;;;;;;14.65;9.88;;;;;;;1.08;79.29;98900.09;1088117;54;20030;-76
2022/04/02 02:57:15;;;;;;;11.30;9.10;;;;;;;1.11;79.27;98891.94;1089879;47;20749;-77
2022/04/02 02:58:19;;;;;;;10.70;8.85;;;;;;;1.20;79.11;98895.72;1088074;54;20038;-78
2022/04/02 02:59:21;;;;;;;14.07;10.90;;;;;;;1.21;78.82;98892.97;1089492;47;20796;-78
2022/04/02 03:00:25;;;;;;;10.98;8.95;;;;;;;1.21;79.03;98894.75;1088094;54;20030;-77
2022/04/02 03:01:27;;;;;;;13.32;9.77;;;;;;;1.16;79.21;98894.25;1089732;47;20030;-77
2022/04/02 03:02:31;;;;;;;16.20;10.18;;;;;;;1.09;79.51;98899.13;1094206;39;20605;-79
2022/04/02 03:03:33;;;;;;;15.77;9.23;;;;;;;1.09;79.45;98899.13;1088277;54;20034;-78
2022/04/02 03:04:37;;;;;;;10.13;8.25;;;;;;;1.18;79.39;98893.16;1090437;39;20642;-78
2022/04/02 03:05:40;;;;;;;12.05;9.07;;;;;;;1.23;79.22;98895.47;1088397;54;20026;-78
2022/04/02 03:06:44;;;;;;;11.05;8.90;;;;;;;1.28;79.08;98898.63;1088386;54;20027;-78
2022/04/02 03:07:48;;;;;;;12.68;9.88;;;;;;;1.20;79.16;98901.81;1088321;54;20040;-79
2022/04/02 03:08:53;;;;;;;13.07;10.30;;;;;;;1.12;79.42;98898.91;1088397;54;20030;-77
2022/04/02 03:09:58;;;;;;;12.07;9.43;;;;;;;1.09;79.81;98894.72;1088413;54;20031;-77
2022/04/02 03:11:04;;;;;;;13.23;9.90;;;;;;;1.00;80.35;98903.28;1087881;54;21407;-78
2022/04/02 03:12:07;;;;;;;14.43;9.43;;;;;;;1.00;79.67;98892.75;1088308;54;20034;-77
2022/04/02 03:13:12;;;;;;;14.07;10.02;;;;;;;1.06;80.00;98899.34;1088316;54;20045;-77
2022/04/02 03:14:13;;;;;;;12.40;9.65;;;;;;;1.02;80.20;98904.00;1088308;54;20744;-77
2022/04/02 03:15:18;;;;;;;14.88;10.43;;;;;;;0.96;80.01;98893.91;1088413;54;20035;-77
2022/04/02 03:16:19;;;;;;;13.48;10.50;;;;;;;0.96;80.45;98899.19;1088342;54;20038;-78
2022/04/02 03:17:24;;;;;;;14.93;9.27;;;;;;;0.90;80.74;98894.38;1088351;54;20034;-77
2022/04/02 03:18:25;;;;;;;12.20;9.80;;;;;;;0.89;80.91;98896.19;1089769;46;20035;-76
2022/04/02 03:19:30;;;;;;;10.65;9.18;;;;;;;0.91;80.87;98898.69;1088414;54;20639;-78
2022/04/02 03:20:32;;;;;;;11.65;9.20;;;;;;;0.99;80.71;98901.59;1089965;46;20043;-78
2022/04/02 03:21:36;;;;;;;13.73;9.38;;;;;;;0.93;80.81;98894.97;1088279;54;20793;-76
2022/04/02 03:22:40;;;;;;;11.88;10.35;;;;;;;1.00;80.76;98898.00;1088381;54;20015;-78
2022/04/02 03:23:44;;;;;;;14.75;10.52;;;;;;;0.96;80.13;98901.81;1088366;54;20030;-78
2022/04/02 03:24:47;;;;;;;12.65;10.15;;;;;;;0.85;80.71;98901.78;1088355;54;20750;-79
2022/04/02 03:25:51;;;;;;;13.13;10.45;;;;;;;0.83;80.84;98904.50;1088318;54;20737;-77
2022/04/02 03:26:55;;;;;;;13.27;10.40;;;;;;;0.81;80.94;98908.19;1088306;54;20030;-77
2022/04/02 03:28:00;;;;;;;14.65;10.50;;;;;;;0.77;81.28;98910.22;1088299;54;20030;-78
2022/04/02 03:29:02;;;;;;;14.45;9.85;;;;;;;0.73;81.60;98906.97;1088365;54;20038;-77
2022/04/02 03:30:09;;;;;;;14.60;11.30;;;;;;;0.76;81.50;98909.34;1088412;54;20034;-78
2022/04/02 03:31:10;;;;;;;11.43;9.57;;;;;;;0.80;81.65;98910.00;1088440;46;20034;-77
2022/04/02 03:32:14;;;;;;;13.35;10.30;;;;;;;0.79;81.48;98910.94;1088331;54;20027;-77
2022/04/02 03:33:20;;;;;;;13.15;10.50;;;;;;;0.80;81.86;98910.00;1088326;54;20026;-78
2022/04/02 03:34:21;;;;;;;12.93;10.35;;;;;;;0.74;81.63;98906.00;1088407;54;20025;-79
2022/04/02 03:35:26;;;;;;;12.02;9.70;;;;;;;0.75;81.84;98912.97;1089389;46;20102;-78
2022/04/02 03:36:30;;;;;;;11.63;9.20;;;;;;;0.79;81.93;98908.31;1088319;54;20035;-76
2022/04/02 03:37:33;;;;;;;13.32;10.40;;;;;;;0.85;82.07;98917.56;1088303;54;20098;-77
2022/04/02 03:38:38;;;;;;;12.00;9.88;;;;;;;0.83;81.95;98912.38;1088279;54;20026;-77
2022/04/02 03:39:39;;;;;;;13.70;10.38;;;;;;;0.83;81.93;98912.38;1088419;54;20026;-77
2022/04/02 03:40:44;;;;;;;14.70;9.95;;;;;;;0.85;81.71;98910.50;1088385;54;20086;-78
2022/04/02 03:41:46;;;;;;;13.13;9.48;;;;;;;0.83;81.72;98912.38;1088267;54;20021;-77
2022/04/02 03:42:53;;;;;;;14.98;10.07;;;;;;;0.78;81.85;98911.88;1088298;54;20018;-77
2022/04/02 03:43:56;;;;;;;12.73;9.93;;;;;;;0.80;81.94;98917.03;1088384;54;20037;-76
2022/04/02 03:45:00;;;;;;;12.52;9.90;;;;;;;0.80;82.16;98920.53;1088437;47;20034;-78
2022/04/02 03:47:22;;;;;;;12.75;9.98;;;;;;;0.75;82.29;98915.59;1088778;39;20676;-77
2022/04/02 03:48:24;;;;;;;12.65;9.88;;;;;;;0.73;82.38;98914.00;1088333;54;20817;-76
2022/04/02 03:49:28;;;;;;;12.35;9.35;;;;;;;0.73;82.60;98917.47;1088330;54;20030;-79
2022/04/02 03:50:32;;;;;;;13.70;10.07;;;;;;;0.77;82.86;98918.09;1091416;39;20613;-78
2022/04/02 03:51:35;;;;;;;12.07;9.30;;;;;;;0.73;82.98;98920.13;1089593;46;20038;-78
2022/04/02 03:52:39;;;;;;;14.52;9.25;;;;;;;0.75;83.19;98923.47;1088412;54;20031;-77
2022/04/02 03:53:41;;;;;;;14.98;9.75;;;;;;;0.73;82.85;98925.38;1089283;39;20613;-79
2022/04/02 03:54:45;;;;;;;12.88;9.73;;;;;;;0.78;82.66;98925.88;1088425;54;20071;-77
2022/04/02 03:55:47;;;;;;;11.52;8.88;;;;;;;0.82;82.73;98930.94;1088401;54;20041;-79
2022/04/02 03:56:51;;;;;;;13.93;10.13;;;;;;;0.80;83.06;98930.19;1088344;54;20104;-78
2022/04/02 03:57:58;;;;;;;14.32;9.98;;;;;;;0.77;82.97;98926.81;1088324;54;20038;-77
2022/04/02 03:59:00;;;;;;;14.02;9.63;;;;;;;0.78;82.73;98931.13;1091181;46;20045;-77
2022/04/02 04:00:06;;;;;;;11.40;9.25;;;;;;;0.81;82.84;98931.88;1088414;54;20071;-77
2022/04/02 04:01:08;;;;;;;12.68;9.18;;;;;;;0.86;82.79;98935.84;1088417;54;20034;-77
2022/04/02 04:02:13;;;;;;;12.63;9.73;;;;;;;0.86;82.63;98937.63;1088263;54;20031;-77
2022/04/02 04:03:15;;;;;;;13.27;10.05;;;;;;;0.82;82.89;98928.28;1088340;54;20078;-78
2022/04/02 04:04:19;;;;;;;12.60;9.60;;;;;;;0.84;82.83;98936.94;1088369;54;20015;-77
2022/04/02 04:05:23;;;;;;;14.45;9.48;;;;;;;0.79;82.84;98934.63;1088370;54;20158;-77
2022/04/02 04:06:27;;;;;;;12.73;9.15;;;;;;;0.86;82.83;98937.63;1090655;31;20700;-78
2022/04/02 04:07:28;;;;;;;11.52;8.52;;;;;;;0.92;82.87;98934.59;1088402;54;20679;-77
2022/04/02 04:08:32;;;;;;;12.13;9.07;;;;;;;0.92;82.59;98934.59;1091634;46;20082;-77
2022/04/02 04:09:36;;;;;;;10.32;8.35;;;;;;;0.89;82.53;98932.16;1088375;54;20034;-77
2022/04/02 04:10:41;;;;;;;11.35;9.15;;;;;;;0.93;82.37;98931.81;1088354;54;20760;-78
2022/04/02 04:11:43;;;;;;;12.27;8.98;;;;;;;0.95;82.28;98931.72;1087783;54;20902;-77
2022/04/02 04:12:47;;;;;;;13.60;9.30;;;;;;;0.90;82.41;98937.31;1090885;39;20645;-77
2022/04/02 04:13:56;;;;;;;11.57;8.68;;;;;;;0.90;82.19;98937.31;1090035;46;20019;-77
2022/04/02 04:14:58;;;;;;;12.30;8.80;;;;;;;0.89;81.91;98930.38;1088267;54;20035;-76
2022/04/02 04:16:03;;;;;;;12.27;8.70;;;;;;;0.88;82.11;98933.09;1088467;54;20018;-78
2022/04/02 04:17:05;;;;;;;10.27;8.30;;;;;;;0.92;82.15;98934.59;1088434;47;20039;-77
2022/04/02 04:18:10;;;;;;;12.50;8.38;;;;;;;0.88;81.95;98933.97;1089393;46;20014;-77
2022/04/02 04:19:12;;;;;;;12.93;9.05;;;;;;;0.82;82.02;98928.28;1088359;54;20015;-77
2022/04/02 04:20:18;;;;;;;11.60;8.88;;;;;;;0.86;82.26;98943.75;1088336;54;20038;-76
2022/04/02 04:21:19;;;;;;;10.52;8.32;;;;;;;0.83;82.53;98941.31;1088069;54;20023;-78
2022/04/02 04:22:23;;;;;;;11.07;8.50;;;;;;;0.92;82.48;98940.66;1089950;46;20030;-77
2022/04/02 04:23:26;;;;;;;12.80;9.27;;;;;;;0.94;82.31;98937.94;1089573;46;20035;-77
2022/04/02 04:24:30;;;;;;;14.05;8.30;;;;;;;0.97;82.49;98942.97;1088351;54;20070;-78
2022/04/02 04:25:31;;;;;;;11.18;8.48;;;;;;;0.87;82.77;98942.81;1088310;54;20022;-78
2022/04/02 04:26:35;;;;;;;12.77;8.75;;;;;;;0.81;83.31;98952.94;1090090;46;20034;-76
2022/04/02 04:27:40;;;;;;;13.75;8.95;;;;;;;0.71;83.74;98952.75;1088296;54;20019;-77
2022/04/02 04:28:41;;;;;;;11.32;8.65;;;;;;;0.72;84.13;98949.16;1088295;54;20023;-77
2022/04/02 04:29:48;;;;;;;11.48;8.52;;;;;;;0.67;84.46;98949.47;1088293;54;20067;-77
2022/04/02 04:30:50;;;;;;;11.73;8.45;;;;;;;0.80;83.96;98952.09;1088657;46;20050;-77
2022/04/02 04:31:54;;;;;;;12.02;8.50;;;;;;;0.78;83.96;98954.00;1090275;39;20636;-76
2022/04/02 04:32:57;;;;;;;10.50;8.50;;;;;;;0.70;84.29;98957.16;1088215;54;20022;-78
2022/04/02 04:34:02;;;;;;;10.75;8.57;;;;;;;0.64;84.76;98957.59;1088288;54;20119;-77
2022/04/02 04:35:05;;;;;;;12.93;7.93;;;;;;;0.64;84.85;98956.75;1088300;54;20018;-77
2022/04/02 04:36:09;;;;;;;15.55;8.77;;;;;;;0.55;85.31;98958.25;1088306;54;20034;-78
2022/04/02 04:37:14;;;;;;;12.48;9.13;;;;;;;0.57;85.35;98959.81;1088241;54;20726;-78
2022/04/02 04:38:15;;;;;;;10.52;7.85;;;;;;;0.60;85.20;98961.38;1088182;54;20029;-77
2022/04/02 04:39:21;;;;;;;12.73;8.60;;;;;;;0.69;84.79;98966.00;1088246;54;20040;-77
2022/04/02 04:40:23;;;;;;;12.07;8.80;;;;;;;0.56;85.32;98963.38;1088309;54;20049;-78
2022/04/02 04:41:27;;;;;;;11.93;8.85;;;;;;;0.46;85.74;98962.34;1088239;54;20078;-79
2022/04/02 04:42:29;;;;;;;10.48;8.85;;;;;;;0.52;85.85;98964.53;1088231;54;20042;-78
2022/04/02 04:43:34;;;;;;;13.07;8.93;;;;;;;0.52;85.77;98966.34;1088213;54;20697;-78
2022/04/02 04:44:36;;;;;;;10.43;7.72;;;;;;;0.59;85.70;98962.31;1090736;39;20762;-78
2022/04/02 04:45:43;;;;;;;13.02;8.13;;;;;;;0.62;85.51;98962.94;1090411;39;20645;-78
2022/04/02 04:46:48;;;;;;;13.50;7.75;;;;;;;0.66;85.48;98960.09;1094341;39;20638;-78
2022/04/02 04:47:49;;;;;;;15.32;8.75;;;;;;;0.66;85.32;98966.22;1088219;54;20037;-78
2022/04/02 04:48:54;;;;;;;12.45;8.40;;;;;;;0.66;85.17;98965.38;1088272;54;20035;-77
2022/04/02 04:49:56;;;;;;;10.75;8.07;;;;;;;0.61;85.25;98973.59;1088307;54;20030;-78
2022/04/02 04:51:00;;;;;;;10.50;8.50;;;;;;;0.61;85.31;98970.97;1088291;54;20030;-77
2022/04/02 04:52:03;;;;;;;11.02;8.70;;;;;;;0.62;85.14;98977.91;1090585;39;20638;-78
2022/04/02 04:53:09;;;;;;;15.32;8.95;;;;;;;0.61;85.54;98973.59;1088128;54;20078;-78
2022/04/02 04:54:11;;;;;;;14.15;8.52;;;;;;;0.60;85.57;98967.50;1088281;54;20058;-79
2022/04/02 04:55:15;;;;;;;13.93;9.65;;;;;;;0.57;85.71;98978.22;1088938;46;20042;-79
2022/04/02 04:56:16;;;;;;;10.38;7.75;;;;;;;0.59;85.52;98970.22;1088227;54;20022;-77
2022/04/02 04:57:21;;;;;;;11.73;7.35;;;;;;;0.69;85.37;98978.31;1089446;46;20037;-77
2022/04/02 04:58:27;;;;;;;10.32;7.75;;;;;;;0.64;84.94;98978.63;1088157;54;20027;-77
2022/04/02 04:59:31;;;;;;;10.13;7.25;;;;;;;0.61;85.07;98979.66;1088386;54;20058;-77
2022/04/02 05:00:40;;;;;;;13.95;7.80;;;;;;;0.62;84.65;98980.53;1088459;54;20050;-77
2022/04/02 05:01:46;;;;;;;11.20;7.75;;;;;;;0.61;84.66;98979.66;1088505;54;20014;-78
2022/04/02 05:02:48;;;;;;;9.88;7.20;;;;;;;0.63;85.00;98982.22;1088438;54;20018;-78
2022/04/02 05:04:00;;;;;;;9.73;7.32;;;;;;;0.62;85.01;98984.00;1089084;46;20030;-77
2022/04/02 05:05:01;;;;;;;10.20;7.00;;;;;;;0.65;85.06;98982.97;1088419;54;20057;-77
2022/04/02 05:06:13;;;;;;;10.02;7.80;;;;;;;0.58;84.98;98979.06;1090571;46;20037;-77
2022/04/02 05:07:15;;;;;;;10.30;7.57;;;;;;;0.55;85.31;98990.63;1088460;54;20022;-77